Time;durP1;ratioP1;P1;durP2;ratioP2;P2;SDS_P1;SDS_P2;PMS_P1;PMS_P2;Temp;Humidity;BMP_temperature;BMP_pressure;BME280_temperature;BME280_humidity;BME280_pressure;Samples;Min_cycle;Max_cycle;Signal;HPM_P1;HPM_P2
2023/03/04 00:00:09;;;;;;;26.80;15.40;;;;;;;0.08;82.03;99176.88;106110;1253;70341;-74
2023/03/04 00:02:43;;;;;;;26.30;16.30;;;;;;;0.17;81.73;99166.94;105784;1254;73133;-72
2023/03/04 00:05:14;;;;;;;25.70;16.50;;;;;;;0.21;81.82;99164.95;106584;1253;307835;-73
2023/03/04 00:09:58;;;;;;;26.60;17.30;;;;;;;0.14;81.92;99163.88;104728;1291;616332;-73
2023/03/04 00:12:27;;;;;;;25.10;15.90;;;;;;;0.09;82.16;99162.17;105772;1268;59272;-73
2023/03/04 00:14:53;;;;;;;23.60;15.00;;;;;;;0.15;82.15;99152.11;106790;1267;60467;-72
2023/03/04 00:17:24;;;;;;;28.10;16.80;;;;;;;0.22;81.91;99151.78;108443;1254;72290;-71
2023/03/04 00:19:56;;;;;;;26.60;17.40;;;;;;;0.18;81.74;99149.42;108779;1255;70115;-72
2023/03/04 00:22:28;;;;;;;23.80;16.40;;;;;;;0.14;81.96;99147.16;108761;1257;189754;-71
2023/03/04 00:24:58;;;;;;;24.50;16.40;;;;;;;0.10;82.01;99145.70;109132;1253;61060;-72
2023/03/04 00:27:26;;;;;;;25.40;16.10;;;;;;;0.17;82.00;99148.27;109148;1253;59193;-71
2023/03/04 00:29:53;;;;;;;24.50;16.50;;;;;;;0.18;81.78;99147.34;109276;1253;70947;-72
2023/03/04 00:32:20;;;;;;;26.00;16.90;;;;;;;0.14;81.77;99145.73;109020;1252;69333;-71
2023/03/04 00:34:50;;;;;;;31.20;17.00;;;;;;;0.08;81.88;99141.35;108704;1252;71917;-71
2023/03/04 00:37:18;;;;;;;27.40;16.00;;;;;;;0.07;81.87;99140.00;109217;1253;60892;-72
2023/03/04 00:39:48;;;;;;;24.70;16.40;;;;;;;0.16;81.76;99137.98;109014;1252;61694;-73
2023/03/04 00:42:16;;;;;;;24.90;15.40;;;;;;;0.12;81.65;99137.90;106869;1254;73628;-71
2023/03/04 00:44:43;;;;;;;29.20;17.20;;;;;;;0.04;81.73;99136.55;105821;1253;69296;-72
2023/03/04 00:47:09;;;;;;;22.20;14.70;;;;;;;-0.04;81.94;99134.90;105998;1254;72428;-72
2023/03/04 00:49:38;;;;;;;24.50;15.70;;;;;;;-0.07;82.06;99128.73;106118;1253;61204;-72
2023/03/04 00:52:06;;;;;;;25.00;15.40;;;;;;;0.01;81.91;99125.52;106279;1253;59994;-70
2023/03/04 00:54:41;;;;;;;26.80;15.90;;;;;;;0.04;81.74;99127.33;105711;1257;73841;-72
2023/03/04 00:57:08;;;;;;;26.60;15.40;;;;;;;-0.02;81.80;99126.02;105794;1256;70522;-71
2023/03/04 00:59:35;;;;;;;21.70;15.10;;;;;;;-0.08;81.98;99122.68;105858;1258;71390;-70
2023/03/04 01:02:02;;;;;;;27.90;15.80;;;;;;;-0.14;82.03;99117.22;105817;1251;60782;-70
2023/03/04 01:04:32;;;;;;;25.80;15.60;;;;;;;-0.19;82.23;99111.66;105730;1254;60573;-70
2023/03/04 01:07:00;;;;;;;23.60;13.70;;;;;;;-0.12;82.09;99114.79;105829;1257;73822;-70
2023/03/04 01:09:28;;;;;;;22.60;15.50;;;;;;;-0.04;81.86;99108.83;105889;1251;71243;-72
2023/03/04 01:11:55;;;;;;;27.00;14.90;;;;;;;-0.10;82.01;99099.83;106023;1253;75475;-78
2023/03/04 01:14:23;;;;;;;26.80;16.20;;;;;;;-0.16;82.02;99098.25;106516;1254;59622;-84
2023/03/04 01:16:50;;;;;;;27.70;16.30;;;;;;;-0.22;82.35;99094.34;106836;1254;59544;-84
2023/03/04 01:19:20;;;;;;;24.60;15.00;;;;;;;-0.26;82.19;99088.87;106957;1253;73085;-85
2023/03/04 01:21:48;;;;;;;26.80;15.70;;;;;;;-0.19;82.31;99085.75;107213;1253;71508;-82
2023/03/04 01:24:19;;;;;;;22.50;15.20;;;;;;;-0.12;81.97;99085.73;107259;1256;73822;-83
2023/03/04 01:26:46;;;;;;;29.50;15.40;;;;;;;-0.15;82.09;99083.89;107051;1253;61016;-79
2023/03/04 01:29:14;;;;;;;24.60;15.30;;;;;;;-0.21;82.28;99080.32;107680;1253;59514;-86
2023/03/04 01:31:50;;;;;;;28.50;15.40;;;;;;;-0.25;82.30;99080.98;109659;1253;73070;-83
2023/03/04 01:34:25;;;;;;;24.30;14.50;;;;;;;-0.27;82.29;99081.94;109817;1252;71560;-83
2023/03/04 01:36:52;;;;;;;25.60;15.10;;;;;;;-0.16;82.20;99084.10;108304;1252;71058;-73
2023/03/04 01:39:19;;;;;;;25.60;16.10;;;;;;;-0.14;81.94;99083.09;107696;1253;60506;-77
2023/03/04 01:41:46;;;;;;;23.50;14.90;;;;;;;-0.16;82.10;99076.84;107702;1253;61072;-74
2023/03/04 01:44:13;;;;;;;33.10;17.10;;;;;;;-0.22;82.44;99078.33;107291;1256;74055;-76
2023/03/04 01:46:47;;;;;;;29.90;16.20;;;;;;;-0.30;82.57;99075.91;107055;1253;71378;-79
2023/03/04 01:49:15;;;;;;;23.50;14.50;;;;;;;-0.29;82.60;99074.80;106446;1253;72917;-74
2023/03/04 01:51:45;;;;;;;27.50;16.20;;;;;;;-0.25;82.62;99067.54;107128;1255;59684;-73
2023/03/04 01:54:13;;;;;;;32.10;18.00;;;;;;;-0.33;83.11;99069.05;107137;1253;61583;-75
2023/03/04 01:56:42;;;;;;;26.60;16.70;;;;;;;-0.44;83.52;99069.67;106712;1258;73701;-69
2023/03/04 01:59:16;;;;;;;27.10;17.20;;;;;;;-0.48;83.94;99065.12;105724;1253;69956;-72
2023/03/04 02:02:04;;;;;;;28.90;17.50;;;;;;;-0.43;83.92;99059.14;105638;1253;73914;-71
2023/03/04 02:04:33;;;;;;;33.90;20.80;;;;;;;-0.50;84.09;99056.20;106015;1253;60337;-73
2023/03/04 02:07:01;;;;;;;34.60;19.80;;;;;;;-0.62;84.56;99057.45;106091;1253;61482;-74
2023/03/04 02:09:29;;;;;;;32.00;17.50;;;;;;;-0.66;84.91;99056.88;105879;1256;74136;-73
2023/03/04 02:11:55;;;;;;;31.90;20.00;;;;;;;-0.61;85.13;99054.95;105902;1254;70367;-71
2023/03/04 02:14:24;;;;;;;36.10;21.40;;;;;;;-0.66;85.43;99053.04;105952;1254;72021;-72
2023/03/04 02:16:55;;;;;;;30.80;19.90;;;;;;;-0.75;85.80;99053.57;106103;1253;61061;-72
2023/03/04 02:19:26;;;;;;;36.80;21.00;;;;;;;-0.79;86.30;99055.90;106143;1254;60495;-73
2023/03/04 02:21:53;;;;;;;42.20;21.50;;;;;;;-0.72;86.48;99057.84;105898;1254;74394;-73
2023/03/04 02:24:31;;;;;;;39.10;22.80;;;;;;;-0.75;86.66;99050.61;105750;1253;68663;-71
2023/03/04 02:26:58;;;;;;;38.80;22.20;;;;;;;-0.84;86.79;99043.39;105739;1253;73421;-73
2023/03/04 02:29:26;;;;;;;37.90;21.50;;;;;;;-0.89;87.17;99044.33;105766;1254;62109;-73
2023/03/04 02:31:52;;;;;;;38.70;22.20;;;;;;;-0.82;87.31;99047.61;105782;1254;59762;-73
2023/03/04 02:34:24;;;;;;;38.20;23.90;;;;;;;-0.79;87.27;99045.30;107417;1253;72243;-72
2023/03/04 02:36:53;;;;;;;40.10;23.90;;;;;;;-0.85;87.38;99047.27;107051;1256;69944;-72
2023/03/04 02:39:24;;;;;;;37.20;21.00;;;;;;;-0.90;87.55;99044.36;106394;1256;71341;-72
2023/03/04 02:41:52;;;;;;;34.20;21.00;;;;;;;-0.87;87.78;99028.48;105854;1256;62566;-74
2023/03/04 02:44:23;;;;;;;38.60;23.00;;;;;;;-0.77;87.53;99009.85;106182;1254;61169;-72
2023/03/04 02:46:50;;;;;;;39.20;23.80;;;;;;;-0.78;87.76;99004.17;105748;1253;71389;-73
2023/03/04 02:49:18;;;;;;;42.60;23.10;;;;;;;-0.85;87.71;98995.35;105578;1253;70255;-73
2023/03/04 02:51:46;;;;;;;42.70;22.70;;;;;;;-0.88;87.90;98996.60;105619;1253;71753;-71
2023/03/04 02:54:21;;;;;;;37.30;22.80;;;;;;;-0.81;87.67;98994.83;105664;1254;61489;-70
2023/03/04 02:56:50;;;;;;;41.90;22.30;;;;;;;-0.74;87.44;98997.11;105667;1257;61153;-72
2023/03/04 02:59:17;;;;;;;40.00;24.30;;;;;;;-0.77;87.58;98999.63;105772;1256;73104;-70
2023/03/04 03:01:49;;;;;;;37.90;21.90;;;;;;;-0.83;87.62;98998.30;105751;1254;70538;-72
2023/03/04 03:04:17;;;;;;;39.90;23.00;;;;;;;-0.79;87.69;98991.23;105740;1254;72665;-70
2023/03/04 03:06:44;;;;;;;41.20;24.00;;;;;;;-0.68;87.49;98989.22;105721;1254;59621;-71
2023/03/04 03:09:16;;;;;;;46.00;25.40;;;;;;;-0.71;87.42;98991.64;105720;1254;60518;-72
2023/03/04 03:11:45;;;;;;;45.10;23.30;;;;;;;-0.78;87.57;98989.40;105704;1253;74229;-73
2023/03/04 03:14:14;;;;;;;46.30;25.60;;;;;;;-0.78;87.88;98988.94;105911;1255;69041;-72
2023/03/04 03:16:42;;;;;;;38.40;24.10;;;;;;;-0.69;87.85;98982.45;105762;1257;73320;-71
2023/03/04 03:19:11;;;;;;;43.20;25.40;;;;;;;-0.70;87.76;98976.66;105824;1253;60546;-72
2023/03/04 03:21:38;;;;;;;42.70;24.50;;;;;;;-0.76;87.84;98974.00;105799;1253;61368;-73
2023/03/04 03:24:05;;;;;;;41.10;24.80;;;;;;;-0.79;88.00;98979.92;106053;1256;74197;-73
2023/03/04 03:26:33;;;;;;;43.50;25.60;;;;;;;-0.70;87.71;98974.56;106288;1254;69446;-73
2023/03/04 03:29:00;;;;;;;42.60;26.00;;;;;;;-0.63;87.69;98980.95;106154;1254;72790;-73
2023/03/04 03:31:28;;;;;;;47.10;25.90;;;;;;;-0.67;87.61;98971.85;106292;1256;59896;-73
2023/03/04 03:33:58;;;;;;;41.70;25.50;;;;;;;-0.71;87.69;98970.61;105864;1253;59725;-73
2023/03/04 03:36:26;;;;;;;39.50;25.30;;;;;;;-0.63;87.68;98968.98;107599;1253;72403;-73
2023/03/04 03:38:53;;;;;;;48.20;27.40;;;;;;;-0.61;87.41;98963.45;108904;1253;70324;-71
2023/03/04 03:41:20;;;;;;;43.50;24.50;;;;;;;-0.66;87.65;98960.50;107686;1256;71771;-74
2023/03/04 03:43:47;;;;;;;40.50;24.50;;;;;;;-0.69;87.62;98969.45;106090;1253;61485;-73
2023/03/04 03:46:14;;;;;;;43.60;25.30;;;;;;;-0.63;87.67;98966.86;106244;1253;61455;-72
2023/03/04 03:48:42;;;;;;;44.50;25.90;;;;;;;-0.60;87.54;98961.60;105953;1256;73500;-74
2023/03/04 03:51:10;;;;;;;45.90;24.10;;;;;;;-0.65;87.47;98962.38;106215;1253;69991;-73
2023/03/04 03:53:37;;;;;;;39.60;23.90;;;;;;;-0.69;87.70;98950.67;106071;1257;71684;-73
2023/03/04 03:56:04;;;;;;;40.30;23.50;;;;;;;-0.63;87.62;98955.08;106067;1254;61693;-73
2023/03/04 03:58:32;;;;;;;41.10;25.00;;;;;;;-0.56;87.43;98950.01;106077;1254;60102;-72
2023/03/04 04:00:59;;;;;;;46.60;25.50;;;;;;;-0.57;87.44;98941.45;106221;1253;72112;-73
2023/03/04 04:03:26;;;;;;;43.10;24.40;;;;;;;-0.62;87.28;98934.27;106018;1251;69058;-72
2023/03/04 04:05:53;;;;;;;39.30;24.40;;;;;;;-0.54;87.26;98932.34;106182;1254;72401;-72
2023/03/04 04:08:24;;;;;;;41.80;25.10;;;;;;;-0.50;87.02;98935.80;106124;1257;60809;-70
2023/03/04 04:10:52;;;;;;;44.10;25.40;;;;;;;-0.52;87.10;98929.92;106065;1254;60532;-72
2023/03/04 04:13:18;;;;;;;40.80;22.90;;;;;;;-0.55;87.12;98923.20;106127;1257;73357;-71
2023/03/04 04:15:52;;;;;;;38.70;23.00;;;;;;;-0.57;87.09;98917.96;105910;1253;71396;-74
2023/03/04 04:18:22;;;;;;;43.10;25.50;;;;;;;-0.48;86.72;98906.77;106825;1253;71385;-72
2023/03/04 04:20:50;;;;;;;41.00;25.00;;;;;;;-0.41;86.34;98908.35;105794;1254;60443;-71
2023/03/04 04:23:17;;;;;;;36.90;21.90;;;;;;;-0.45;86.28;98908.50;106254;1253;61148;-76
2023/03/04 04:25:44;;;;;;;40.70;22.80;;;;;;;-0.46;86.42;98903.52;106253;1259;73719;-74
2023/03/04 04:28:13;;;;;;;42.70;23.80;;;;;;;-0.41;86.10;98900.83;106525;1253;71324;-73
2023/03/04 04:30:40;;;;;;;43.40;23.80;;;;;;;-0.44;86.40;98899.71;106258;1253;74014;-71
2023/03/04 04:33:12;;;;;;;39.90;24.40;;;;;;;-0.39;86.27;98880.34;106005;1253;61083;-71
2023/03/04 04:35:40;;;;;;;42.80;24.50;;;;;;;-0.39;86.22;98874.77;105793;1254;60557;-74
2023/03/04 04:38:08;;;;;;;39.30;23.20;;;;;;;-0.46;86.59;98868.88;106283;1252;74899;-73
2023/03/04 04:40:35;;;;;;;44.40;24.70;;;;;;;-0.44;86.81;98856.92;107588;1253;71198;-72
2023/03/04 04:43:03;;;;;;;45.10;26.50;;;;;;;-0.40;86.68;98853.66;108306;1253;71702;-70
2023/03/04 04:45:32;;;;;;;42.10;23.90;;;;;;;-0.46;86.83;98854.05;107340;1253;60386;-72
2023/03/04 04:48:00;;;;;;;40.20;22.80;;;;;;;-0.49;87.15;98859.58;107581;1254;60264;-73
2023/03/04 04:50:30;;;;;;;41.50;24.90;;;;;;;-0.44;86.80;98848.23;107190;1257;72632;-72
2023/03/04 04:52:59;;;;;;;43.70;25.90;;;;;;;-0.44;86.88;98848.02;106626;1259;69968;-71
2023/03/04 04:55:27;;;;;;;41.20;22.50;;;;;;;-0.49;87.03;98851.88;106872;1255;73668;-74
2023/03/04 04:57:54;;;;;;;40.70;24.30;;;;;;;-0.44;86.83;98842.30;107405;1256;60884;-73
2023/03/04 05:00:21;;;;;;;40.30;25.20;;;;;;;-0.37;86.70;98848.02;107389;1253;60313;-72
2023/03/04 05:02:50;;;;;;;43.30;25.00;;;;;;;-0.40;86.63;98849.13;107378;1258;72827;-71
2023/03/04 05:05:17;;;;;;;44.40;25.80;;;;;;;-0.44;86.64;98840.23;107660;1253;70107;-75
2023/03/04 05:07:51;;;;;;;44.10;24.30;;;;;;;-0.37;86.48;98832.52;108136;1254;70316;-73
2023/03/04 05:10:19;;;;;;;41.40;23.80;;;;;;;-0.30;86.13;98827.30;108052;1254;60219;-74
2023/03/04 05:12:47;;;;;;;43.00;23.70;;;;;;;-0.33;86.02;98822.69;107926;1254;60216;-73
2023/03/04 05:15:14;;;;;;;39.10;21.40;;;;;;;-0.36;85.95;98821.00;107473;1254;73794;-73
2023/03/04 05:17:41;;;;;;;41.10;24.40;;;;;;;-0.29;85.53;98820.79;107381;1253;70290;-73
2023/03/04 05:20:09;;;;;;;40.10;23.80;;;;;;;-0.25;85.51;98810.52;108429;1252;72651;-72
2023/03/04 05:22:36;;;;;;;43.40;24.20;;;;;;;-0.29;85.37;98812.02;109231;1253;58228;-72
2023/03/04 05:25:04;;;;;;;38.50;21.80;;;;;;;-0.31;85.17;98810.82;109053;1252;60327;-73
2023/03/04 05:27:31;;;;;;;39.20;23.20;;;;;;;-0.21;84.83;98807.73;108642;1253;75044;-72
2023/03/04 05:29:58;;;;;;;40.50;24.30;;;;;;;-0.15;84.44;98801.05;109250;1254;70427;-72
2023/03/04 05:32:27;;;;;;;44.40;24.30;;;;;;;-0.20;84.35;98812.90;109371;1253;71571;-73
2023/03/04 05:34:54;;;;;;;39.80;23.50;;;;;;;-0.19;84.23;98802.71;109021;1258;61325;-72
2023/03/04 05:37:21;;;;;;;43.60;26.30;;;;;;;-0.08;83.81;98799.45;109261;1253;60109;-75
2023/03/04 05:39:49;;;;;;;39.50;24.60;;;;;;;-0.08;83.35;98802.71;109349;1253;73785;-71
2023/03/04 05:42:16;;;;;;;40.00;23.00;;;;;;;-0.12;83.15;98811.58;109216;1253;69998;-73
2023/03/04 05:44:43;;;;;;;37.70;21.30;;;;;;;-0.06;82.75;98800.28;109219;1252;70684;-73
2023/03/04 05:47:10;;;;;;;43.00;23.60;;;;;;;0.03;82.29;98798.36;109228;1253;58560;-72
2023/03/04 05:49:39;;;;;;;39.10;21.40;;;;;;;0.00;81.91;98806.94;109264;1253;59161;-71
2023/03/04 05:52:10;;;;;;;36.60;21.00;;;;;;;0.02;81.96;98791.83;108964;1253;71498;-72
2023/03/04 05:54:36;;;;;;;35.90;20.20;;;;;;;0.13;81.53;98798.63;109085;1253;69204;-73
2023/03/04 05:57:03;;;;;;;33.60;21.60;;;;;;;0.13;81.16;98785.73;108911;1251;71631;-74
2023/03/04 05:59:30;;;;;;;36.00;18.20;;;;;;;0.10;81.06;98777.64;108048;1256;59682;-72
2023/03/04 06:01:57;;;;;;;38.80;19.80;;;;;;;0.12;80.93;98774.98;105728;1256;61508;-70
2023/03/04 06:04:24;;;;;;;41.80;21.90;;;;;;;0.21;80.53;98782.64;105583;1256;74129;-69
2023/03/04 06:06:52;;;;;;;36.70;21.70;;;;;;;0.19;80.17;98758.55;105594;1256;71452;-70
2023/03/04 06:09:20;;;;;;;34.00;19.40;;;;;;;0.14;80.47;98773.29;105569;1253;73492;-70
2023/03/04 06:11:47;;;;;;;38.80;20.60;;;;;;;0.15;80.44;98763.77;105469;1254;62301;-70
2023/03/04 06:14:14;;;;;;;39.00;21.60;;;;;;;0.23;80.14;98761.57;105776;1254;60691;-70
2023/03/04 06:16:42;;;;;;;44.90;22.20;;;;;;;0.20;80.00;98763.23;105619;1257;75529;-68
2023/03/04 06:19:09;;;;;;;40.30;22.10;;;;;;;0.13;80.28;98762.41;106426;1253;71534;-68
2023/03/04 06:21:41;;;;;;;38.00;21.50;;;;;;;0.18;80.26;98750.99;105799;1257;73459;-69
2023/03/04 06:24:08;;;;;;;38.80;21.00;;;;;;;0.22;79.70;98755.26;105822;1257;60418;-71
2023/03/04 06:26:35;;;;;;;40.80;23.00;;;;;;;0.17;79.83;98750.91;106175;1256;60409;-75
2023/03/04 06:29:03;;;;;;;38.80;22.10;;;;;;;0.21;79.89;98756.83;106245;1256;75111;-70
2023/03/04 06:31:31;;;;;;;38.60;21.80;;;;;;;0.29;79.49;98743.52;105815;1254;70337;-71
2023/03/04 06:33:57;;;;;;;39.60;21.10;;;;;;;0.26;79.56;98746.33;106063;1256;71907;-71
2023/03/04 06:36:24;;;;;;;37.70;19.50;;;;;;;0.23;79.71;98742.98;105998;1254;61339;-72
2023/03/04 06:38:51;;;;;;;41.60;23.00;;;;;;;0.32;79.58;98744.49;106017;1254;60489;-69
2023/03/04 06:41:19;;;;;;;42.60;23.60;;;;;;;0.38;79.29;98753.17;105867;1254;74697;-71
2023/03/04 06:43:52;;;;;;;46.10;24.30;;;;;;;0.38;79.15;98741.02;106128;1258;71655;-71
2023/03/04 06:46:26;;;;;;;36.30;19.80;;;;;;;0.38;79.22;98737.85;106658;1257;72814;-71
2023/03/04 06:48:57;;;;;;;34.80;20.50;;;;;;;0.44;78.99;98748.17;106926;1253;62381;-70
2023/03/04 06:51:25;;;;;;;34.60;18.40;;;;;;;0.57;78.46;98736.64;106182;1256;61324;-72
2023/03/04 06:54:02;;;;;;;42.20;24.60;;;;;;;0.56;78.20;98735.45;106042;1259;74894;-73
2023/03/04 06:56:37;;;;;;;42.50;22.60;;;;;;;0.52;78.33;98737.58;105765;1259;68978;-70
2023/03/04 06:59:03;;;;;;;35.90;18.50;;;;;;;0.58;78.36;98732.02;105898;1259;72441;-71
2023/03/04 07:01:31;;;;;;;42.50;22.20;;;;;;;0.65;77.85;98728.29;105931;1255;60466;-74
2023/03/04 07:04:06;;;;;;;43.40;22.20;;;;;;;0.63;77.91;98725.73;106120;1258;60464;-74
2023/03/04 07:06:37;;;;;;;37.90;21.40;;;;;;;0.63;78.14;98718.05;106141;1259;73005;-75
2023/03/04 07:09:04;;;;;;;40.90;22.40;;;;;;;0.76;77.97;98716.55;106236;1259;71434;-76
2023/03/04 07:11:39;;;;;;;42.40;23.30;;;;;;;0.81;77.86;98711.23;105985;1261;73536;-75
2023/03/04 07:14:08;;;;;;;43.60;24.40;;;;;;;0.79;77.87;98708.63;106251;1260;60527;-76
2023/03/04 07:16:50;;;;;;;42.10;21.50;;;;;;;0.86;77.87;98695.86;106217;1254;60483;-77
2023/03/04 07:19:21;;;;;;;45.30;24.50;;;;;;;0.93;77.42;98715.75;106144;1257;73311;-75
2023/03/04 07:21:58;;;;;;;46.30;25.90;;;;;;;0.92;77.42;98698.46;106000;1259;70671;-75
2023/03/04 07:24:26;;;;;;;44.20;23.00;;;;;;;0.92;77.59;98692.30;106131;1261;72495;-73
2023/03/04 07:26:53;;;;;;;41.00;25.20;;;;;;;1.05;77.51;98687.36;106249;1254;63189;-77
2023/03/04 07:29:33;;;;;;;43.80;23.20;;;;;;;1.18;77.03;98686.41;106517;1258;60398;-75
2023/03/04 07:32:08;;;;;;;42.90;23.90;;;;;;;1.19;76.95;98687.73;106351;1254;72606;-77
2023/03/04 07:34:35;;;;;;;46.50;24.90;;;;;;;1.17;77.03;98688.58;106515;1254;70091;-74
2023/03/04 07:37:05;;;;;;;45.10;24.50;;;;;;;1.26;76.81;98678.90;106550;1257;72503;-76
2023/03/04 07:39:35;;;;;;;37.30;23.70;;;;;;;1.34;76.25;98677.48;106572;1254;60535;-73
2023/03/04 07:42:03;;;;;;;43.10;25.80;;;;;;;1.36;76.18;98677.03;106320;1257;60539;-72
2023/03/04 07:44:30;;;;;;;48.60;26.20;;;;;;;1.37;76.13;98670.66;106208;1257;73341;-70
2023/03/04 07:46:57;;;;;;;46.00;25.80;;;;;;;1.42;75.99;98670.18;106430;1257;71338;-71
2023/03/04 07:49:24;;;;;;;47.30;28.10;;;;;;;1.57;75.66;98661.87;106142;1256;73654;-70
2023/03/04 07:51:51;;;;;;;44.00;26.90;;;;;;;1.72;75.35;98665.28;107174;1254;60507;-70
2023/03/04 07:54:19;;;;;;;48.10;27.50;;;;;;;1.77;74.91;98657.66;107238;1254;60303;-69
2023/03/04 07:56:48;;;;;;;45.40;27.10;;;;;;;1.77;74.29;98663.55;106833;1256;74059;-72
2023/03/04 07:59:16;;;;;;;42.00;27.50;;;;;;;1.79;74.23;98662.18;106480;1254;71519;-71
2023/03/04 08:01:43;;;;;;;46.20;28.50;;;;;;;1.78;73.98;98663.33;106315;1259;72648;-73
2023/03/04 08:04:13;;;;;;;43.10;25.60;;;;;;;1.87;74.13;98659.73;106378;1254;62420;-70
2023/03/04 08:06:40;;;;;;;42.60;23.50;;;;;;;1.99;73.20;98660.93;106512;1257;60277;-73
2023/03/04 08:09:07;;;;;;;47.00;27.10;;;;;;;1.98;72.71;98658.92;106334;1257;74011;-75
2023/03/04 08:11:36;;;;;;;45.40;27.10;;;;;;;1.93;72.87;98649.88;106544;1255;70580;-77
2023/03/04 08:14:04;;;;;;;50.00;28.00;;;;;;;1.95;72.78;98651.12;106615;1253;73909;-74
2023/03/04 08:16:34;;;;;;;50.20;28.90;;;;;;;1.99;72.88;98646.27;106612;1254;60564;-75
2023/03/04 08:19:02;;;;;;;46.30;26.90;;;;;;;2.04;72.51;98651.19;106477;1254;60344;-74
2023/03/04 08:21:29;;;;;;;43.70;26.70;;;;;;;2.08;71.90;98646.98;106354;1254;73916;-74
2023/03/04 08:24:01;;;;;;;48.60;26.90;;;;;;;2.21;71.62;98639.66;106135;1256;69391;-70
2023/03/04 08:26:37;;;;;;;44.60;25.00;;;;;;;2.29;71.09;98646.96;105949;1257;71637;-70
2023/03/04 08:29:08;;;;;;;48.20;28.50;;;;;;;2.29;70.32;98651.86;105916;1254;60488;-72
2023/03/04 08:31:39;;;;;;;44.20;27.90;;;;;;;2.28;70.37;98643.45;105947;1269;60420;-72
2023/03/04 08:34:09;;;;;;;48.10;24.80;;;;;;;2.28;69.92;98656.03;105919;1254;74775;-72
2023/03/04 08:36:36;;;;;;;45.60;26.10;;;;;;;2.20;69.34;98646.80;106113;1255;70093;-73
2023/03/04 08:39:04;;;;;;;51.70;29.00;;;;;;;2.09;69.61;98642.13;106006;1254;73921;-71
2023/03/04 08:41:32;;;;;;;46.20;24.50;;;;;;;1.97;69.74;98655.14;106223;1254;60956;-72
2023/03/04 08:44:02;;;;;;;41.90;23.40;;;;;;;1.87;70.14;98644.22;106139;1257;60910;-74
2023/03/04 08:46:29;;;;;;;53.60;27.40;;;;;;;1.77;70.48;98656.06;106208;1257;74612;-72
2023/03/04 08:48:59;;;;;;;42.60;25.80;;;;;;;1.73;70.85;98648.06;106005;1254;69986;-74
2023/03/04 08:51:27;;;;;;;46.40;27.00;;;;;;;1.83;70.79;98646.11;106294;1257;72309;-72
2023/03/04 08:53:54;;;;;;;47.90;27.00;;;;;;;1.82;70.76;98643.11;106335;1254;60583;-71
2023/03/04 08:56:21;;;;;;;48.30;27.40;;;;;;;1.77;70.94;98646.98;106333;1255;61312;-68
2023/03/04 08:58:47;;;;;;;52.90;28.00;;;;;;;1.73;71.11;98645.64;106620;1257;72058;-69
2023/03/04 09:01:14;;;;;;;49.10;29.10;;;;;;;1.67;71.10;98638.85;106586;1254;70406;-67
2023/03/04 09:03:44;;;;;;;43.70;24.20;;;;;;;1.64;71.43;98635.98;106314;1257;70808;-71
2023/03/04 09:06:15;;;;;;;44.10;25.70;;;;;;;1.65;71.45;98643.75;105858;1254;60560;-71
2023/03/04 09:08:44;;;;;;;46.20;23.50;;;;;;;1.74;71.05;98636.64;106190;1257;61374;-70
2023/03/04 09:11:16;;;;;;;46.80;27.80;;;;;;;1.75;70.92;98633.42;106152;1256;74360;-71
2023/03/04 09:13:45;;;;;;;51.70;27.30;;;;;;;1.78;71.03;98627.88;106032;1257;69762;-73
2023/03/04 09:16:13;;;;;;;47.70;28.10;;;;;;;1.85;70.67;98624.83;105823;1254;73040;-71
2023/03/04 09:18:40;;;;;;;44.70;25.50;;;;;;;1.90;70.26;98624.14;105774;1254;60471;-74
2023/03/04 09:21:10;;;;;;;41.60;25.40;;;;;;;1.95;69.91;98621.45;105763;1252;60478;-74
2023/03/04 09:23:39;;;;;;;49.50;28.40;;;;;;;2.00;69.93;98625.34;105798;1257;75092;-71
2023/03/04 09:26:20;;;;;;;44.20;25.40;;;;;;;2.08;69.63;98625.19;105942;1258;71317;-73
2023/03/04 09:28:52;;;;;;;45.30;25.80;;;;;;;2.15;68.30;98622.40;106348;1254;73685;-73
2023/03/04 09:31:18;;;;;;;45.10;26.30;;;;;;;2.20;67.82;98619.30;106725;1255;60319;-76
2023/03/04 09:33:48;;;;;;;44.30;24.70;;;;;;;2.26;67.15;98622.13;107211;1252;60427;-73
2023/03/04 09:36:16;;;;;;;38.50;23.80;;;;;;;2.32;66.88;98612.52;107241;1260;73594;-73
2023/03/04 09:38:49;;;;;;;43.00;26.80;;;;;;;2.37;66.22;98614.91;107528;1257;69539;-73
2023/03/04 09:41:22;;;;;;;37.50;24.20;;;;;;;2.43;65.62;98607.29;107548;1254;70266;-72
2023/03/04 09:43:49;;;;;;;42.50;24.30;;;;;;;2.45;65.49;98602.14;107186;1258;60533;-72
2023/03/04 09:46:37;;;;;;;41.80;24.60;;;;;;;2.46;65.40;98605.39;107360;1254;60436;-71
2023/03/04 09:49:04;;;;;;;36.20;22.90;;;;;;;2.49;65.21;98607.06;107133;1254;73879;-71
2023/03/04 09:51:45;;;;;;;39.10;22.90;;;;;;;2.46;64.98;98611.69;107401;1254;70000;-72
2023/03/04 09:54:20;;;;;;;40.70;22.60;;;;;;;2.42;65.04;98610.98;107654;1253;71726;-73
2023/03/04 09:56:56;;;;;;;40.10;23.90;;;;;;;2.40;65.27;98609.29;109262;1253;59326;-72
2023/03/04 10:00:04;;;;;;;36.40;21.40;;;;;;;2.39;65.28;98597.31;109321;1253;59112;-72
2023/03/04 10:03:05;;;;;;;40.30;23.00;;;;;;;2.38;65.31;98597.23;109099;1252;73747;-76
2023/03/04 10:05:33;;;;;;;47.10;23.40;;;;;;;2.40;65.27;98595.98;109370;1253;69211;-71
2023/03/04 10:08:28;;;;;;;38.60;22.60;;;;;;;2.43;65.03;98596.44;109352;1253;71694;-74
2023/03/04 10:11:01;;;;;;;37.20;22.30;;;;;;;2.45;64.77;98599.67;108929;1253;59320;-73
2023/03/04 10:13:58;;;;;;;31.20;19.20;;;;;;;2.45;63.98;98595.30;108469;1254;60989;-72
2023/03/04 10:16:39;;;;;;;33.00;20.00;;;;;;;2.42;63.57;98599.14;108402;1254;72766;-75
2023/03/04 10:19:13;;;;;;;38.80;20.00;;;;;;;2.35;63.23;98591.55;108341;1254;68865;-74
2023/03/04 10:21:54;;;;;;;36.90;20.10;;;;;;;2.26;63.85;98594.16;106662;1254;71990;-72
2023/03/04 10:24:26;;;;;;;33.10;20.20;;;;;;;2.19;63.93;98592.55;107004;1254;60958;-73
2023/03/04 10:26:57;;;;;;;32.70;18.80;;;;;;;2.13;64.24;98590.80;106085;1254;60534;-71
2023/03/04 10:29:25;;;;;;;34.80;19.30;;;;;;;2.08;64.57;98584.61;106107;1254;72044;-73
2023/03/04 10:31:57;;;;;;;32.00;20.40;;;;;;;2.06;64.59;98581.55;106136;1254;70666;-73
2023/03/04 10:34:35;;;;;;;32.70;21.60;;;;;;;2.01;64.81;98579.17;106063;1255;72695;-73
2023/03/04 10:37:06;;;;;;;33.50;21.40;;;;;;;1.99;64.95;98578.55;106129;1257;60425;-72
2023/03/04 10:39:44;;;;;;;30.50;19.20;;;;;;;1.92;64.91;98582.65;106321;1252;60409;-71
2023/03/04 10:42:14;;;;;;;31.50;19.50;;;;;;;1.83;65.22;98571.77;105685;1254;74557;-69
2023/03/04 10:45:02;;;;;;;33.60;20.20;;;;;;;1.76;65.42;98566.27;106276;1255;69961;-73
2023/03/04 10:47:31;;;;;;;32.20;20.70;;;;;;;1.72;65.50;98558.03;105980;1257;72491;-72
2023/03/04 10:50:01;;;;;;;32.60;18.90;;;;;;;1.72;65.16;98559.24;106107;1259;60447;-73
2023/03/04 10:52:46;;;;;;;32.80;19.10;;;;;;;1.73;64.78;98541.39;106020;1254;60618;-74
2023/03/04 10:55:40;;;;;;;33.00;20.60;;;;;;;1.83;64.96;98535.94;106209;1259;74909;-74
2023/03/04 10:58:17;;;;;;;29.70;19.40;;;;;;;2.29;64.14;98535.55;106472;1254;71251;-71
2023/03/04 11:01:04;;;;;;;32.80;19.90;;;;;;;2.89;62.40;98531.66;106436;1253;73521;-74
2023/03/04 11:03:35;;;;;;;28.90;16.90;;;;;;;3.50;60.95;98522.62;106378;1253;60715;-74
2023/03/04 11:06:26;;;;;;;30.10;19.30;;;;;;;3.99;59.69;98513.52;107641;1253;60534;-74
2023/03/04 11:08:59;;;;;;;30.80;20.00;;;;;;;4.48;58.84;98504.27;108042;1254;73579;-73
2023/03/04 11:11:41;;;;;;;27.00;18.60;;;;;;;4.77;57.52;98501.22;106565;1254;70430;-68
2023/03/04 11:14:34;;;;;;;32.70;19.80;;;;;;;4.80;57.03;98523.26;106261;1253;72692;-72
2023/03/04 11:17:39;;;;;;;33.20;20.60;;;;;;;4.74;57.26;98505.55;106193;1259;60501;-72
2023/03/04 11:20:28;;;;;;;30.40;20.20;;;;;;;4.71;57.31;98501.03;106116;1254;60505;-74
2023/03/04 11:22:56;;;;;;;26.60;17.40;;;;;;;4.60;57.50;98498.09;105956;1254;74641;-72
2023/03/04 11:25:27;;;;;;;25.80;18.70;;;;;;;4.53;57.71;98494.29;106179;1254;71419;-72
2023/03/04 11:28:03;;;;;;;30.50;19.20;;;;;;;4.50;57.90;98497.60;106141;1254;73299;-72
2023/03/04 11:30:37;;;;;;;28.70;19.80;;;;;;;4.38;58.04;98495.09;105974;1254;60485;-73